Time;durP1;ratioP1;P1;durP2;ratioP2;P2;SDS_P1;SDS_P2;PMS_P1;PMS_P2;Temp;Humidity;BMP_temperature;BMP_pressure;BME280_temperature;BME280_humidity;BME280_pressure;Samples;Min_cycle;Max_cycle;Signal;HPM_P1;HPM_P2
2021/11/23 00:01:05;;;;;;;21.75;8.55;;;;;;;-0.39;100.00;98845.00;4954356;28;20579;-79
2021/11/23 00:03:32;;;;;;;19.48;8.55;;;;;;;-0.41;100.00;98837.22;4937007;29;20051;-80
2021/11/23 00:05:59;;;;;;;21.45;8.35;;;;;;;-0.42;100.00;98843.59;4954304;29;20047;-80
2021/11/23 00:08:26;;;;;;;17.13;7.47;;;;;;;-0.36;100.00;98840.06;4939915;29;20055;-80
2021/11/23 00:10:53;;;;;;;14.93;7.82;;;;;;;-0.34;100.00;98843.34;4954278;29;20053;-80
2021/11/23 00:13:19;;;;;;;19.50;8.35;;;;;;;-0.41;100.00;98839.09;4951677;29;20076;-80
2021/11/23 00:15:46;;;;;;;17.98;8.80;;;;;;;-0.46;100.00;98837.06;4933912;29;20122;-80
2021/11/23 00:18:15;;;;;;;18.70;8.82;;;;;;;-0.41;100.00;98836.44;4951695;29;20125;-80
2021/11/23 00:20:44;;;;;;;21.48;8.13;;;;;;;-0.41;100.00;98839.88;4951719;29;20110;-80
2021/11/23 00:23:12;;;;;;;20.05;8.02;;;;;;;-0.35;100.00;98838.22;4952230;29;20613;-80
2021/11/23 00:25:39;;;;;;;13.35;7.85;;;;;;;-0.41;100.00;98828.47;4951610;29;20059;-81
2021/11/23 00:28:06;;;;;;;18.33;7.78;;;;;;;-0.41;100.00;98825.78;4951285;29;20366;-81
2021/11/23 00:30:33;;;;;;;16.10;7.63;;;;;;;-0.44;100.00;98826.22;4933841;29;20043;-81
2021/11/23 00:33:00;;;;;;;14.52;7.35;;;;;;;-0.45;100.00;98822.75;4951049;29;20066;-81
2021/11/23 00:35:28;;;;;;;16.88;7.90;;;;;;;-0.42;100.00;98822.31;4951408;29;20094;-81
2021/11/23 00:37:56;;;;;;;16.33;7.32;;;;;;;-0.44;100.00;98831.53;4951431;29;20492;-82
2021/11/23 00:40:24;;;;;;;16.17;7.53;;;;;;;-0.41;100.00;98833.78;4933715;29;20062;-81
2021/11/23 00:42:51;;;;;;;15.52;7.00;;;;;;;-0.41;100.00;98836.44;4951047;29;20592;-81
2021/11/23 00:45:18;;;;;;;14.75;7.10;;;;;;;-0.48;100.00;98839.13;4933490;29;20055;-81
2021/11/23 00:47:45;;;;;;;18.08;6.95;;;;;;;-0.63;100.00;98842.09;4934013;29;20090;-80
2021/11/23 00:50:12;;;;;;;11.65;7.05;;;;;;;-0.60;100.00;98843.50;4934027;29;20082;-79
2021/11/23 00:52:38;;;;;;;15.77;7.43;;;;;;;-0.56;100.00;98842.03;4933883;29;20062;-81
2021/11/23 00:55:06;;;;;;;15.32;6.90;;;;;;;-0.52;100.00;98837.09;4952219;29;20047;-81
2021/11/23 00:57:33;;;;;;;15.18;7.40;;;;;;;-0.58;100.00;98828.13;4928645;29;20051;-81
2021/11/23 01:00:00;;;;;;;13.55;6.63;;;;;;;-0.52;100.00;98843.25;4950583;29;20122;-81
2021/11/23 01:02:27;;;;;;;13.35;6.38;;;;;;;-0.59;100.00;98826.50;4951270;29;20090;-81
2021/11/23 01:04:53;;;;;;;12.60;6.35;;;;;;;-0.68;100.00;98836.59;4950212;28;20086;-81
2021/11/23 01:07:20;;;;;;;12.13;5.78;;;;;;;-0.63;100.00;98842.09;4950852;29;20504;-81
2021/11/23 01:09:46;;;;;;;13.88;6.25;;;;;;;-0.70;100.00;98827.19;4933096;29;20119;-81
2021/11/23 01:12:13;;;;;;;11.85;6.30;;;;;;;-0.74;100.00;98825.97;4950646;29;20129;-81
2021/11/23 01:14:40;;;;;;;14.52;6.80;;;;;;;-0.69;100.00;98831.47;4933057;29;20086;-80
2021/11/23 01:17:07;;;;;;;13.65;6.00;;;;;;;-0.83;100.00;98825.44;4933780;29;20055;-80
2021/11/23 01:19:33;;;;;;;11.20;5.60;;;;;;;-0.83;100.00;98829.94;4936622;29;20226;-81
2021/11/23 01:22:01;;;;;;;13.20;6.32;;;;;;;-0.86;100.00;98827.69;4933236;29;20529;-80
2021/11/23 01:24:28;;;;;;;10.38;5.47;;;;;;;-0.99;100.00;98822.44;4950755;29;20152;-80
2021/11/23 01:26:55;;;;;;;17.50;6.65;;;;;;;-0.99;100.00;98815.28;4933090;29;20079;-79
2021/11/23 01:29:21;;;;;;;14.32;6.75;;;;;;;-1.00;100.00;98816.31;4950980;29;20130;-80
2021/11/23 01:31:48;;;;;;;18.73;8.10;;;;;;;-1.05;100.00;98815.31;4951339;29;20047;-80
2021/11/23 01:34:19;;;;;;;16.10;7.00;;;;;;;-1.02;100.00;98810.41;4951158;29;20066;-80
2021/11/23 01:36:47;;;;;;;18.33;7.32;;;;;;;-1.11;100.00;98814.31;4951220;29;20129;-81
2021/11/23 01:39:13;;;;;;;18.35;6.90;;;;;;;-1.17;100.00;98817.00;4934825;29;20059;-81
2021/11/23 01:41:40;;;;;;;19.75;8.82;;;;;;;-1.10;100.00;98812.47;4936441;29;20106;-79
2021/11/23 01:44:07;;;;;;;25.33;10.73;;;;;;;-1.11;100.00;98816.97;4956322;29;20436;-81
2021/11/23 01:46:33;;;;;;;25.25;10.15;;;;;;;-1.14;100.00;98819.25;4956395;29;20051;-80
2021/11/23 01:49:00;;;;;;;18.25;7.50;;;;;;;-1.17;100.00;98823.13;4958123;29;20405;-82
2021/11/23 01:51:27;;;;;;;16.70;6.90;;;;;;;-1.08;100.00;98819.19;4937127;29;20496;-81
2021/11/23 01:53:54;;;;;;;18.20;6.30;;;;;;;-1.11;100.00;98818.81;4952286;29;20083;-81
2021/11/23 01:56:20;;;;;;;14.43;6.10;;;;;;;-1.18;100.00;98816.19;4953044;29;20055;-81
2021/11/23 01:58:47;;;;;;;12.10;6.00;;;;;;;-1.12;100.00;98807.38;4936252;29;20055;-81
2021/11/23 02:01:15;;;;;;;10.43;5.72;;;;;;;-1.16;100.00;98813.34;4957151;29;20118;-81
2021/11/23 02:03:42;;;;;;;11.93;5.88;;;;;;;-1.16;100.00;98810.69;4940836;29;20055;-81
2021/11/23 02:06:09;;;;;;;14.57;5.97;;;;;;;-1.21;100.00;98816.59;4954158;29;20047;-81
2021/11/23 02:08:36;;;;;;;16.42;7.03;;;;;;;-1.27;100.00;98806.84;4952841;29;20109;-82
2021/11/23 02:11:03;;;;;;;21.52;6.40;;;;;;;-1.26;100.00;98816.41;4934599;29;20105;-81
2021/11/23 02:13:31;;;;;;;17.58;7.88;;;;;;;-1.34;100.00;98806.03;4950557;29;20105;-81
2021/11/23 02:15:58;;;;;;;26.50;10.25;;;;;;;-1.37;100.00;98817.09;4948225;28;20082;-81
2021/11/23 02:18:26;;;;;;;28.98;10.13;;;;;;;-1.31;100.00;98810.91;4933338;29;20451;-81
2021/11/23 02:20:56;;;;;;;28.88;10.07;;;;;;;-1.35;100.00;98823.81;4949828;29;20625;-81
2021/11/23 02:23:23;;;;;;;27.98;10.43;;;;;;;-1.32;100.00;98820.72;4950131;29;20100;-82
2021/11/23 02:25:50;;;;;;;20.10;8.93;;;;;;;-1.23;100.00;98820.50;4949683;29;20074;-80
2021/11/23 02:28:17;;;;;;;19.08;8.65;;;;;;;-1.22;100.00;98809.66;4950130;29;20444;-80
2021/11/23 03:54:33;;;;;;;28.60;14.55;;;;;;;-0.52;100.00;98791.91;4957631;28;20059;-79
2021/11/23 04:06:16;;;;;;;23.20;11.95;;;;;;;-0.38;100.00;98812.03;4922891;29;20184;-79
2021/11/23 04:08:43;;;;;;;22.48;11.65;;;;;;;-0.45;100.00;98798.81;4950073;29;20088;-79
2021/11/23 04:11:12;;;;;;;22.38;12.15;;;;;;;-0.40;100.00;98811.44;4948115;29;20053;-80
2021/11/23 04:13:40;;;;;;;21.40;12.20;;;;;;;-0.34;100.00;98823.88;4947266;29;20119;-80
2021/11/23 04:16:07;;;;;;;23.15;11.40;;;;;;;-0.39;100.00;98808.59;4948890;29;20084;-80
2021/11/23 04:18:45;;;;;;;22.30;11.57;;;;;;;-0.46;100.00;98791.03;4946860;29;20051;-79
2021/11/23 04:21:16;;;;;;;24.27;12.23;;;;;;;-0.36;100.00;98808.13;4950163;29;20243;-79
2021/11/23 04:23:43;;;;;;;21.08;12.68;;;;;;;-0.25;100.00;98823.41;4945372;29;20070;-79
2021/11/23 04:26:13;;;;;;;24.75;12.57;;;;;;;-0.24;100.00;98826.88;4942124;29;20051;-78
2021/11/23 04:28:40;;;;;;;26.33;13.80;;;;;;;-0.38;100.00;98801.41;4939752;29;20086;-79
2021/11/23 04:31:09;;;;;;;26.13;13.30;;;;;;;-0.27;100.00;98814.00;4940600;29;20083;-79
2021/11/23 04:33:41;;;;;;;25.55;13.00;;;;;;;-0.05;100.00;98824.06;4939860;29;20056;-79
2021/11/23 04:36:08;;;;;;;22.08;11.98;;;;;;;-0.04;100.00;98796.41;4940031;29;20115;-80
2021/11/23 04:38:37;;;;;;;18.92;10.80;;;;;;;0.18;100.00;98809.34;4936826;29;20048;-77
2021/11/23 04:41:06;;;;;;;23.17;12.00;;;;;;;0.31;100.00;98796.69;4941185;29;20039;-78
2021/11/23 04:43:33;;;;;;;26.58;12.85;;;;;;;0.19;100.00;98793.13;4933355;29;20122;-79
2021/11/23 04:46:08;;;;;;;19.17;11.67;;;;;;;0.11;100.00;98797.91;4942041;29;20043;-78
2021/11/23 04:48:36;;;;;;;20.58;11.45;;;;;;;0.11;100.00;98797.91;4934579;29;20327;-79
2021/11/23 04:51:06;;;;;;;18.65;11.07;;;;;;;0.11;100.00;98790.75;4939652;29;20063;-79
2021/11/23 04:53:32;;;;;;;18.63;11.02;;;;;;;-0.01;100.00;98798.66;4940157;28;20147;-79
2021/11/23 04:55:59;;;;;;;16.88;10.45;;;;;;;-0.10;100.00;98780.50;4937228;29;20115;-79
2021/11/23 04:58:28;;;;;;;16.90;9.68;;;;;;;0.01;100.00;98785.09;4943823;29;20411;-79
2021/11/23 05:00:55;;;;;;;17.17;8.82;;;;;;;0.00;100.00;98786.94;4922096;29;20059;-79
2021/11/23 05:03:29;;;;;;;17.23;8.87;;;;;;;0.03;100.00;98774.25;4947958;29;20063;-79
2021/11/23 05:05:56;;;;;;;15.43;8.20;;;;;;;0.06;100.00;98779.13;4938941;29;20056;-80
2021/11/23 05:08:23;;;;;;;19.75;8.30;;;;;;;0.17;100.00;98795.19;4930205;29;20052;-79
2021/11/23 05:10:50;;;;;;;17.33;8.30;;;;;;;0.15;100.00;98785.81;4922558;29;20063;-79
2021/11/23 05:13:17;;;;;;;16.42;8.02;;;;;;;0.11;100.00;98776.59;4921546;29;20075;-79
2021/11/23 05:15:44;;;;;;;16.63;8.68;;;;;;;0.14;100.00;98779.66;4921681;29;20465;-79
2021/11/23 05:18:10;;;;;;;15.57;8.40;;;;;;;0.06;100.00;98755.97;4922731;29;20062;-79
2021/11/23 05:20:41;;;;;;;15.65;8.90;;;;;;;0.20;100.00;98772.66;4938061;29;20051;-80
2021/11/23 05:23:10;;;;;;;15.98;8.25;;;;;;;0.14;100.00;98760.19;4921693;29;20062;-79
2021/11/23 05:25:37;;;;;;;17.05;8.60;;;;;;;0.05;100.00;98774.84;4922004;29;20051;-80
2021/11/23 05:28:13;;;;;;;20.15;8.52;;;;;;;0.10;100.00;98767.00;4937835;29;20410;-79
2021/11/23 05:30:39;;;;;;;18.42;8.35;;;;;;;0.20;100.00;98783.28;4920170;29;20055;-78
2021/11/23 05:33:14;;;;;;;14.52;8.23;;;;;;;0.10;100.00;98762.50;4919910;29;20428;-78
2021/11/23 05:35:40;;;;;;;20.27;8.45;;;;;;;0.10;100.00;98767.00;4883871;29;20421;-78
2021/11/23 05:38:09;;;;;;;14.93;8.57;;;;;;;0.07;100.00;98765.59;4899460;29;20605;-78
2021/11/23 05:40:41;;;;;;;16.42;8.38;;;;;;;0.04;100.00;98762.56;4897523;29;20067;-78
2021/11/23 05:43:15;;;;;;;13.65;6.55;;;;;;;-0.12;100.00;98750.63;4888771;29;20608;-78
2021/11/23 05:45:42;;;;;;;15.13;8.20;;;;;;;0.11;100.00;98773.94;4913730;29;20048;-78
2021/11/23 05:48:15;;;;;;;22.33;8.88;;;;;;;0.14;100.00;98784.16;4900664;29;20058;-78
2021/11/23 05:51:02;;;;;;;16.77;8.73;;;;;;;0.01;100.00;98771.81;4901318;29;20090;-79
2021/11/23 05:53:35;;;;;;;18.02;8.88;;;;;;;-0.10;100.00;98753.88;4916791;29;20472;-78
2021/11/23 05:56:55;;;;;;;;;;;;;;;;;;;;;
2021/11/23 06:05:30;;;;;;;16.42;9.45;;;;;;;0.07;100.00;98786.09;4958211;28;20043;-78
2021/11/23 06:08:01;;;;;;;22.33;9.70;;;;;;;-0.06;100.00;98761.22;4954802;29;20058;-78
2021/11/23 06:10:39;;;;;;;18.15;9.55;;;;;;;-0.01;100.00;98761.38;4954170;29;20058;-79
2021/11/23 06:13:20;;;;;;;18.80;9.30;;;;;;;0.16;100.00;98768.78;4938172;29;20543;-78
2021/11/23 06:16:05;;;;;;;19.88;9.63;;;;;;;0.31;100.00;98785.25;4937440;29;20040;-79
2021/11/23 06:18:34;;;;;;;17.10;8.13;;;;;;;0.24;100.00;98774.63;4941919;29;20134;-81
2021/11/23 06:21:01;;;;;;;15.98;8.13;;;;;;;0.50;100.00;98789.53;4939805;29;20043;-79
2021/11/23 06:23:27;;;;;;;14.60;8.10;;;;;;;0.48;100.00;98803.06;4940868;29;20102;-80
2021/11/23 06:25:57;;;;;;;18.45;7.78;;;;;;;0.48;100.00;98811.06;4957128;29;20105;-79
2021/11/23 06:28:24;;;;;;;15.77;7.68;;;;;;;0.50;100.00;98818.81;4935624;29;20051;-79
2021/11/23 06:30:51;;;;;;;12.93;7.10;;;;;;;0.53;100.00;98813.06;4933054;29;20113;-79
2021/11/23 06:33:18;;;;;;;13.60;7.55;;;;;;;0.52;100.00;98824.75;4952122;29;20047;-80
2021/11/23 06:35:45;;;;;;;17.27;7.28;;;;;;;0.44;100.00;98812.53;4949059;29;20055;-80
2021/11/23 06:38:12;;;;;;;13.85;7.28;;;;;;;0.43;100.00;98818.09;4935083;29;20075;-80
2021/11/23 06:40:39;;;;;;;14.63;7.78;;;;;;;0.42;100.00;98821.78;4943942;29;20693;-79
2021/11/23 06:43:06;;;;;;;17.02;7.55;;;;;;;0.34;100.00;98806.91;4954253;29;20110;-80
2021/11/23 06:45:34;;;;;;;15.77;6.78;;;;;;;0.50;100.00;98822.31;4946252;29;20436;-81
2021/11/23 06:48:01;;;;;;;12.25;6.03;;;;;;;0.60;100.00;98833.25;4925240;29;20056;-81
2021/11/23 06:50:32;;;;;;;17.50;6.90;;;;;;;0.59;100.00;98826.28;4936602;29;20412;-80
2021/11/23 06:53:07;;;;;;;11.60;5.88;;;;;;;0.61;100.00;98829.56;4929581;29;20083;-80
2021/11/23 06:55:36;;;;;;;13.18;5.55;;;;;;;0.68;100.00;98834.00;4926903;29;20063;-80
2021/11/23 06:58:03;;;;;;;13.63;5.38;;;;;;;0.70;100.00;98826.63;4939091;29;20087;-80
2021/11/23 07:00:30;;;;;;;14.52;5.40;;;;;;;0.70;100.00;98824.75;4920832;29;20063;-80
2021/11/23 07:02:57;;;;;;;12.35;5.53;;;;;;;0.69;100.00;98828.47;4930881;29;20055;-80
2021/11/23 07:05:24;;;;;;;9.77;5.00;;;;;;;0.80;100.00;98822.38;4956249;29;20051;-80
2021/11/23 07:07:51;;;;;;;10.68;5.80;;;;;;;0.76;100.00;98831.03;4948823;29;20118;-80
2021/11/23 07:10:18;;;;;;;10.43;5.60;;;;;;;0.83;100.00;98837.91;4952465;29;20047;-80
2021/11/23 07:13:02;;;;;;;11.70;5.85;;;;;;;0.88;100.00;98827.41;4948113;29;20118;-79
2021/11/23 07:15:29;;;;;;;9.98;4.95;;;;;;;0.91;100.00;98826.97;4952300;29;20062;-80
2021/11/23 07:17:55;;;;;;;8.80;4.78;;;;;;;0.96;100.00;98828.94;4959518;28;20324;-79
2021/11/23 07:20:23;;;;;;;9.52;4.55;;;;;;;1.05;100.00;98828.44;4958999;29;20063;-78
2021/11/23 07:22:49;;;;;;;9.98;4.88;;;;;;;1.08;100.00;98841.31;4957442;29;20055;-79
2021/11/23 07:25:16;;;;;;;11.52;5.13;;;;;;;1.21;100.00;98848.34;4956528;28;20074;-79
2021/11/23 07:27:43;;;;;;;11.50;5.00;;;;;;;1.23;100.00;98840.91;4957848;29;20058;-79
2021/11/23 07:30:11;;;;;;;13.77;5.15;;;;;;;1.21;100.00;98841.13;4957661;29;20594;-79
2021/11/23 07:32:37;;;;;;;9.80;5.28;;;;;;;1.29;100.00;98837.38;4959287;29;20058;-79
2021/11/23 07:35:07;;;;;;;10.75;4.88;;;;;;;1.32;100.00;98850.22;4961290;29;20139;-80
2021/11/23 07:37:40;;;;;;;15.02;5.40;;;;;;;1.32;100.00;98844.09;4970468;28;20054;-80
2021/11/23 07:40:09;;;;;;;14.00;5.30;;;;;;;1.42;100.00;98852.38;4969460;28;20070;-79
2021/11/23 07:42:36;;;;;;;11.57;5.30;;;;;;;1.39;100.00;98847.47;4971803;28;20089;-79
2021/11/23 07:45:07;;;;;;;13.02;5.05;;;;;;;1.42;100.00;98852.38;4955235;29;20063;-79
2021/11/23 07:47:35;;;;;;;9.00;4.65;;;;;;;1.53;100.00;98844.41;4954885;29;20070;-80
2021/11/23 07:50:04;;;;;;;9.15;4.70;;;;;;;1.66;100.00;98854.88;4954979;29;20901;-78
2021/11/23 07:52:34;;;;;;;9.82;4.88;;;;;;;1.71;100.00;98854.19;4955475;29;20616;-80
2021/11/23 07:55:03;;;;;;;7.75;4.22;;;;;;;1.87;100.00;98848.19;4955150;29;20058;-79
2021/11/23 07:57:33;;;;;;;8.95;4.45;;;;;;;2.17;100.00;98859.63;4956655;28;20127;-80
2021/11/23 08:00:01;;;;;;;9.20;4.70;;;;;;;2.48;100.00;98872.66;4956005;29;20059;-79
2021/11/23 08:02:32;;;;;;;9.05;4.85;;;;;;;2.93;100.00;98864.00;4953502;29;20563;-79
2021/11/23 08:05:00;;;;;;;10.50;4.80;;;;;;;3.68;100.00;98870.06;4955139;29;20146;-80
2021/11/23 08:07:30;;;;;;;9.25;4.30;;;;;;;4.69;100.00;98866.34;4955628;29;20723;-79
2021/11/23 08:09:58;;;;;;;16.88;4.65;;;;;;;5.02;100.00;98867.09;4954903;29;20479;-79
2021/11/23 08:12:26;;;;;;;8.50;3.30;;;;;;;4.03;100.00;98859.13;4952730;28;20511;-79
2021/11/23 08:14:53;;;;;;;8.38;3.63;;;;;;;3.64;100.00;98856.31;4952954;29;20070;-78
2021/11/23 08:17:20;;;;;;;9.02;3.33;;;;;;;3.56;100.00;98863.94;4957581;28;20051;-80
2021/11/23 08:19:49;;;;;;;7.50;3.33;;;;;;;3.36;100.00;98858.19;4948735;29;20062;-80
2021/11/23 08:22:16;;;;;;;7.32;3.20;;;;;;;3.36;100.00;98872.38;4947017;29;20513;-80
2021/11/23 08:24:44;;;;;;;7.68;3.03;;;;;;;3.19;100.00;98857.31;4956404;29;20059;-81
2021/11/23 08:27:14;;;;;;;10.13;3.40;;;;;;;3.18;100.00;98869.88;4950725;28;20051;-81
2021/11/23 08:29:59;;;;;;;5.65;3.20;;;;;;;2.94;100.00;98836.22;4942145;29;20467;-80
2021/11/23 08:37:28;;;;;;;8.45;3.38;;;;;;;3.22;100.00;98873.72;4885916;29;20501;-80
2021/11/23 08:41:17;;;;;;;8.00;3.78;;;;;;;3.30;100.00;98870.69;4953813;28;20553;-80
2021/11/23 08:45:00;;;;;;;10.48;3.80;;;;;;;3.43;100.00;98854.31;4950364;29;20150;-80
2021/11/23 08:47:55;;;;;;;9.57;3.15;;;;;;;3.57;100.00;98855.66;4941438;29;20066;-80
2021/11/23 08:50:41;;;;;;;7.80;3.40;;;;;;;3.61;100.00;98877.44;4940130;29;20078;-81
2021/11/23 08:53:30;;;;;;;;;;;;;;;;;;;;;
2021/11/23 08:56:33;;;;;;;11.00;3.42;;;;;;;3.70;100.00;98875.97;4938110;29;20437;-80
2021/11/23 08:59:17;;;;;;;9.10;3.80;;;;;;;3.72;100.00;98872.00;4943677;29;20575;-79
2021/11/23 09:02:26;;;;;;;;;;;;;;;;;;;;;
2021/11/23 09:05:36;;;;;;;7.70;3.88;;;;;;;4.36;100.00;98835.81;4963902;28;20075;-81
2021/11/23 09:16:30;;;;;;;;;;;;;;;;;;;;;
2021/11/23 09:19:16;;;;;;;7.35;3.70;;;;;;;5.31;100.00;98885.69;4888175;28;20059;-79
2021/11/23 09:21:43;;;;;;;13.68;3.97;;;;;;;5.28;100.00;98873.59;4938506;29;20043;-79
2021/11/23 09:24:10;;;;;;;10.15;4.10;;;;;;;4.92;100.00;98890.28;4953405;28;20488;-77
2021/11/23 09:26:36;;;;;;;18.00;4.15;;;;;;;4.67;100.00;98892.63;4955278;29;20054;-79
2021/11/23 09:29:03;;;;;;;10.00;3.85;;;;;;;4.54;100.00;98899.13;4954442;29;20055;-79
2021/11/23 09:31:30;;;;;;;9.55;3.85;;;;;;;4.35;100.00;98900.41;4936558;29;20464;-81
2021/11/23 09:33:57;;;;;;;9.82;3.88;;;;;;;4.21;100.00;98894.56;4961586;29;20055;-79
2021/11/23 09:36:24;;;;;;;11.95;4.47;;;;;;;4.19;100.00;98904.72;4939869;29;20082;-79
2021/11/23 09:38:51;;;;;;;11.30;4.03;;;;;;;4.27;100.00;98917.72;4942251;29;20055;-80
2021/11/23 09:41:18;;;;;;;13.68;4.45;;;;;;;4.47;100.00;98917.22;4942010;29;20176;-80
2021/11/23 09:43:46;;;;;;;9.02;4.07;;;;;;;4.42;100.00;98909.09;4934079;29;20059;-80
2021/11/23 09:46:13;;;;;;;9.20;4.25;;;;;;;4.38;100.00;98890.03;4943040;29;20074;-80
2021/11/23 09:48:43;;;;;;;10.40;4.18;;;;;;;4.58;100.00;98891.38;4960588;29;20070;-79
2021/11/23 09:51:37;;;;;;;13.68;4.90;;;;;;;4.73;100.00;98860.25;4966728;23;20230;-79
2021/11/23 09:54:34;;;;;;;10.15;4.22;;;;;;;5.19;100.00;98893.06;4966304;28;20058;-80
2021/11/23 10:05:40;;;;;;;;;;;;;;;;;;;;;
2021/11/23 10:08:28;;;;;;;9.15;4.15;;;;;;;5.39;100.00;98885.25;4961319;28;20055;-80
2021/11/23 10:10:57;;;;;;;8.02;4.00;;;;;;;5.64;100.00;98880.16;4955878;28;20176;-80
2021/11/23 10:13:44;;;;;;;12.25;4.28;;;;;;;5.70;100.00;98889.91;4941444;29;20051;-80
2021/11/23 10:16:13;;;;;;;9.63;3.90;;;;;;;5.61;100.00;98873.44;4948943;28;20499;-80
2021/11/23 10:18:50;;;;;;;11.27;3.70;;;;;;;5.50;100.00;98870.88;4944693;28;20066;-80
2021/11/23 10:21:19;;;;;;;10.40;4.00;;;;;;;5.79;100.00;98874.94;4953454;29;20051;-81
2021/11/23 10:23:49;;;;;;;8.52;3.13;;;;;;;5.75;100.00;98864.97;4957370;28;20068;-81
2021/11/23 10:26:36;;;;;;;12.25;3.90;;;;;;;5.77;100.00;98857.47;4971378;28;20058;-80
2021/11/23 10:29:05;;;;;;;7.82;3.22;;;;;;;6.11;100.00;98865.09;4953038;29;20487;-82
2021/11/23 10:31:42;;;;;;;10.15;4.00;;;;;;;6.83;100.00;98853.75;4960745;28;20101;-82
2021/11/23 10:34:13;;;;;;;11.63;3.72;;;;;;;6.63;100.00;98854.44;4970558;28;20109;-82
2021/11/23 10:36:43;;;;;;;12.52;4.35;;;;;;;6.48;100.00;98853.53;4971185;28;20043;-80
2021/11/23 10:39:09;;;;;;;11.38;4.30;;;;;;;6.23;100.00;98857.66;4961663;28;20078;-82
2021/11/23 10:41:41;;;;;;;7.20;3.50;;;;;;;5.54;100.00;98856.69;4957661;28;20503;-79
2021/11/23 10:44:36;;;;;;;12.30;3.60;;;;;;;5.35;100.00;98850.03;4960196;28;20047;-80
2021/11/23 10:47:08;;;;;;;10.45;3.70;;;;;;;5.23;100.00;98845.84;4968398;28;20140;-81
2021/11/23 10:49:43;;;;;;;12.25;3.58;;;;;;;5.31;100.00;98848.09;4970553;28;20047;-81
2021/11/23 10:52:26;;;;;;;10.63;3.55;;;;;;;5.40;100.00;98846.59;4952558;28;20061;-80
2021/11/23 10:54:55;;;;;;;15.25;4.00;;;;;;;5.53;100.00;98843.50;4962307;28;20051;-81
2021/11/23 10:57:23;;;;;;;11.50;4.43;;;;;;;5.75;100.00;98833.53;4969019;28;20086;-81
2021/11/23 10:59:50;;;;;;;13.00;4.05;;;;;;;5.87;100.00;98826.16;4933977;29;20467;-81
2021/11/23 11:02:17;;;;;;;13.70;4.20;;;;;;;6.04;100.00;98823.34;4939528;28;20046;-81
2021/11/23 11:04:50;;;;;;;11.90;3.90;;;;;;;6.56;100.00;98839.59;4953109;28;20078;-81
2021/11/23 11:07:20;;;;;;;15.40;3.63;;;;;;;6.55;100.00;98835.28;4972568;28;20065;-81
2021/11/23 11:09:49;;;;;;;15.90;4.18;;;;;;;6.83;100.00;98833.03;4980653;28;20054;-81
2021/11/23 11:12:16;;;;;;;15.23;5.30;;;;;;;6.80;100.00;98830.88;4961029;28;20078;-81
2021/11/23 11:14:48;;;;;;;17.73;4.60;;;;;;;6.51;100.00;98823.41;4980093;28;20058;-81
2021/11/23 11:17:15;;;;;;;14.07;4.90;;;;;;;6.24;100.00;98810.88;4964492;28;20050;-81
2021/11/23 11:19:48;;;;;;;14.38;5.88;;;;;;;6.18;100.00;98837.97;4966493;28;20127;-80
2021/11/23 11:22:19;;;;;;;20.30;5.53;;;;;;;6.30;100.00;98819.00;4985568;28;20288;-81
2021/11/23 11:25:16;;;;;;;14.13;4.47;;;;;;;5.83;100.00;98803.53;4978113;28;20554;-81
2021/11/23 11:27:47;;;;;;;15.13;4.80;;;;;;;6.39;100.00;98809.34;4952942;28;20535;-81
2021/11/23 11:30:31;;;;;;;14.23;5.18;;;;;;;6.33;100.00;98810.38;4954349;28;20055;-81
2021/11/23 11:33:04;;;;;;;13.95;4.80;;;;;;;6.17;100.00;98826.41;4980533;28;20589;-81
2021/11/23 11:35:42;;;;;;;12.93;4.50;;;;;;;5.88;100.00;98827.78;4967350;28;20488;-81
2021/11/23 11:41:04;;;;;;;12.90;4.70;;;;;;;5.35;100.00;98817.00;4992648;28;20133;-80
2021/11/23 11:43:33;;;;;;;16.33;5.65;;;;;;;5.33;100.00;98833.38;4972355;28;20050;-80
2021/11/23 11:46:00;;;;;;;14.95;4.82;;;;;;;5.20;100.00;98830.25;4968620;28;20102;-80
2021/11/23 11:48:30;;;;;;;14.23;5.93;;;;;;;5.35;100.00;98839.28;4970749;28;20055;-80
2021/11/23 11:51:15;;;;;;;11.88;5.57;;;;;;;5.25;100.00;98827.63;4973704;28;20046;-81
2021/11/23 11:53:48;;;;;;;20.73;6.30;;;;;;;5.09;100.00;98829.31;4978523;28;20090;-80
2021/11/23 11:56:34;;;;;;;13.38;5.90;;;;;;;5.25;100.00;98825.75;4974968;28;20062;-81
2021/11/23 11:59:03;;;;;;;13.50;6.05;;;;;;;5.18;100.00;98818.97;4979310;28;20058;-81
2021/11/23 12:01:36;;;;;;;17.25;5.90;;;;;;;5.13;100.00;98827.78;4979137;28;20485;-83
2021/11/23 12:04:05;;;;;;;21.13;6.32;;;;;;;5.37;100.00;98823.72;4979357;28;20084;-82
2021/11/23 12:06:54;;;;;;;17.88;6.20;;;;;;;5.33;100.00;98835.22;4975540;28;20573;-82
2021/11/23 12:09:36;;;;;;;16.15;5.75;;;;;;;5.08;100.00;98816.16;4959420;28;20057;-83
2021/11/23 12:12:09;;;;;;;18.38;6.15;;;;;;;5.17;100.00;98825.38;4959308;28;20523;-82
2021/11/23 12:14:52;;;;;;;24.23;7.25;;;;;;;5.08;100.00;98826.88;4961288;28;20046;-82
2021/11/23 12:18:01;;;;;;;14.95;6.55;;;;;;;5.17;100.00;98817.31;4976805;28;20051;-81
2021/11/23 12:20:41;;;;;;;19.27;6.85;;;;;;;5.12;100.00;98818.09;4968740;28;20176;-82
2021/11/23 12:23:20;;;;;;;26.60;6.75;;;;;;;5.07;100.00;98817.22;4961464;28;20053;-81
2021/11/23 12:25:59;;;;;;;24.50;6.95;;;;;;;5.02;100.00;98816.09;4960691;28;20415;-82
2021/11/23 12:28:28;;;;;;;17.67;6.68;;;;;;;4.99;100.00;98821.97;4979789;28;20046;-82
2021/11/23 12:31:06;;;;;;;20.10;7.28;;;;;;;5.01;100.00;98813.66;4965493;28;20051;-81
2021/11/23 12:33:44;;;;;;;23.30;7.00;;;;;;;5.23;100.00;98813.66;4981483;28;20039;-82
2021/11/23 12:36:14;;;;;;;22.80;7.20;;;;;;;5.14;100.00;98815.94;4978625;28;20498;-82
2021/11/23 12:38:41;;;;;;;19.10;7.07;;;;;;;5.19;100.00;98807.97;4997544;28;20046;-82
2021/11/23 12:41:16;;;;;;;18.73;6.95;;;;;;;5.11;100.00;98811.06;5007885;28;20077;-82
2021/11/23 12:43:46;;;;;;;18.48;7.05;;;;;;;5.05;100.00;98796.00;5005057;28;20225;-82
2021/11/23 12:46:22;;;;;;;16.13;7.00;;;;;;;5.30;100.00;98809.69;5002641;28;20046;-82
2021/11/23 12:48:52;;;;;;;17.30;6.50;;;;;;;5.28;100.00;98814.53;5006196;28;20065;-81
2021/11/23 12:51:29;;;;;;;20.75;7.10;;;;;;;5.24;100.00;98820.66;4997375;28;20047;-81
2021/11/23 12:54:03;;;;;;;21.90;7.47;;;;;;;5.35;100.00;98817.81;4979590;28;20137;-81
2021/11/23 12:56:50;;;;;;;14.48;6.57;;;;;;;5.54;100.00;98813.72;4995311;28;20054;-81
2021/11/23 12:59:36;;;;;;;14.80;7.25;;;;;;;5.40;100.00;98812.50;4971206;28;20042;-82
2021/11/23 13:02:21;;;;;;;14.93;7.13;;;;;;;5.17;100.00;98803.91;4976896;28;20051;-82
2021/11/23 13:04:48;;;;;;;18.15;7.00;;;;;;;5.21;100.00;98815.78;4958323;28;20106;-82
2021/11/23 13:07:15;;;;;;;23.88;7.65;;;;;;;5.21;100.00;98808.53;4959220;28;20050;-82
2021/11/23 13:09:49;;;;;;;19.35;8.25;;;;;;;5.21;100.00;98816.59;4987569;28;20125;-82
2021/11/23 13:12:19;;;;;;;17.77;7.85;;;;;;;5.17;100.00;98828.06;4994272;28;20082;-83
2021/11/23 13:15:20;;;;;;;18.30;7.70;;;;;;;5.19;100.00;98807.97;4996406;28;20041;-83
2021/11/23 13:17:52;;;;;;;17.60;7.93;;;;;;;5.32;100.00;98830.91;4983672;28;20122;-83
2021/11/23 13:20:26;;;;;;;23.35;7.70;;;;;;;5.14;100.00;98815.13;4989232;28;20400;-82
2021/11/23 13:22:57;;;;;;;19.60;8.10;;;;;;;5.26;100.00;98829.25;4985391;28;20046;-83
2021/11/23 13:25:27;;;;;;;25.05;8.27;;;;;;;5.19;100.00;98818.69;4999061;28;20077;-83
2021/11/23 13:27:56;;;;;;;23.70;8.65;;;;;;;5.11;100.00;98835.22;4983628;28;20050;-83
2021/11/23 13:30:43;;;;;;;27.08;8.77;;;;;;;5.12;100.00;98842.25;5012777;28;20054;-84
2021/11/23 13:33:12;;;;;;;21.98;8.95;;;;;;;5.16;100.00;98829.97;5008367;28;20054;-84
2021/11/23 13:35:57;;;;;;;15.90;7.32;;;;;;;5.11;100.00;98821.03;5004171;28;20054;-83
2021/11/23 13:38:48;;;;;;;21.92;8.27;;;;;;;5.06;100.00;98815.59;5004622;28;20084;-82
2021/11/23 13:41:33;;;;;;;19.27;8.55;;;;;;;5.14;100.00;98809.78;5004219;28;20395;-82
2021/11/23 13:44:07;;;;;;;18.85;9.63;;;;;;;5.09;100.00;98823.13;4986684;28;20041;-83
2021/11/23 13:46:42;;;;;;;23.92;9.82;;;;;;;5.26;100.00;98822.03;4986453;28;20106;-82
2021/11/23 13:49:16;;;;;;;20.58;9.00;;;;;;;5.14;100.00;98810.59;5003215;28;20249;-83
2021/11/23 13:51:43;;;;;;;21.00;9.90;;;;;;;5.06;100.00;98827.13;4983594;28;20076;-83
2021/11/23 13:54:15;;;;;;;21.88;9.70;;;;;;;5.18;100.00;98817.09;4997253;28;20081;-84
2021/11/23 13:56:52;;;;;;;28.58;11.02;;;;;;;5.20;100.00;98814.97;5016337;28;20046;-84